createdAt,value
2019-03-22T00:02:19.779Z,10.50
2019-03-22T00:04:52.330Z,10.50
2019-03-22T00:07:31.506Z,10.60
2019-03-22T00:10:02.330Z,10.50
2019-03-22T00:12:35.498Z,10.50
2019-03-22T00:15:15.326Z,10.40
2019-03-22T00:17:45.895Z,10.40
2019-03-22T00:20:16.743Z,10.40
2019-03-22T00:22:47.489Z,10.40
2019-03-22T00:25:20.882Z,10.40
2019-03-22T00:28:04.814Z,10.40
2019-03-22T00:30:37.835Z,10.30
2019-03-22T00:33:11.937Z,10.40
2019-03-22T00:35:43.661Z,10.40
2019-03-22T00:38:16.660Z,10.40
2019-03-22T00:40:57.047Z,10.40
2019-03-22T00:43:30.172Z,10.40
2019-03-22T00:46:14.226Z,10.30
2019-03-22T00:48:47.348Z,10.30
2019-03-22T00:51:18.327Z,10.30
2019-03-22T00:53:53.039Z,10.30
2019-03-22T00:56:31.530Z,10.30
2019-03-22T00:59:04.644Z,10.30
2019-03-22T01:01:36.037Z,10.30
2019-03-22T01:04:06.589Z,10.20
2019-03-22T01:06:38.902Z,10.20
2019-03-22T01:09:16.503Z,10.20
2019-03-22T01:11:47.087Z,10.20
2019-03-22T01:14:17.487Z,10.20
2019-03-22T01:16:48.024Z,10.20
2019-03-22T01:19:18.940Z,10.10
2019-03-22T01:22:09.815Z,10.10
2019-03-22T01:24:40.817Z,10.10
2019-03-22T01:27:18.469Z,10.00
2019-03-22T01:30:09.140Z,10.10
2019-03-22T01:32:42.708Z,10.00
2019-03-22T01:35:15.743Z,10.00
2019-03-22T01:37:53.737Z,10.00
2019-03-22T01:40:26.950Z,9.90
2019-03-22T01:43:01.815Z,9.90
2019-03-22T01:45:37.773Z,9.90
2019-03-22T01:48:11.003Z,9.90
2019-03-22T01:50:41.638Z,10.00
2019-03-22T01:53:12.478Z,9.90
2019-03-22T01:55:50.203Z,9.80
2019-03-22T01:58:23.814Z,9.90
2019-03-22T02:01:23.449Z,9.80
2019-03-22T02:03:54.251Z,9.90
2019-03-22T02:06:45.098Z,9.90
2019-03-22T02:09:23.191Z,9.90
2019-03-22T02:11:56.946Z,9.80
2019-03-22T02:14:33.686Z,9.80
2019-03-22T02:17:06.463Z,9.80
2019-03-22T02:19:41.251Z,9.70
2019-03-22T02:22:14.938Z,9.70
2019-03-22T02:24:48.028Z,9.70
2019-03-22T02:27:23.078Z,9.70
2019-03-22T02:30:02.527Z,9.60
2019-03-22T02:32:31.500Z,9.60
2019-03-22T02:35:03.726Z,9.60
2019-03-22T02:37:52.072Z,9.60
2019-03-22T02:40:20.516Z,9.50
2019-03-22T02:42:53.538Z,9.50
2019-03-22T02:45:28.988Z,9.40
2019-03-22T02:48:01.871Z,9.40
2019-03-22T02:50:36.959Z,9.40
2019-03-22T02:53:26.377Z,9.40
2019-03-22T02:55:56.904Z,9.30
2019-03-22T02:58:27.515Z,9.40
2019-03-22T03:01:01.640Z,9.30
2019-03-22T03:03:35.034Z,9.30
2019-03-22T03:06:06.554Z,9.30
2019-03-22T03:08:38.314Z,9.30
2019-03-22T03:11:16.330Z,9.30
2019-03-22T03:13:45.900Z,9.30
2019-03-22T03:16:16.328Z,9.30
2019-03-22T03:18:47.309Z,9.30
2019-03-22T03:21:20.327Z,9.30
2019-03-22T03:24:14.842Z,9.20
2019-03-22T03:26:45.409Z,9.20
2019-03-22T03:29:15.941Z,9.20
2019-03-22T03:31:57.395Z,9.20
2019-03-22T03:34:25.576Z,9.10
2019-03-22T03:36:55.908Z,9.10
2019-03-22T03:39:26.429Z,9.10
2019-03-22T03:42:02.702Z,9.10
2019-03-22T03:44:34.029Z,9.10
2019-03-22T03:47:04.865Z,9.10
2019-03-22T03:49:36.563Z,9.10
2019-03-22T03:52:08.312Z,9.00
2019-03-22T03:54:38.872Z,9.10
2019-03-22T03:57:09.547Z,9.00
2019-03-22T03:59:46.340Z,9.00
2019-03-22T04:02:21.254Z,9.00
2019-03-22T04:04:59.283Z,9.00
2019-03-22T04:07:32.076Z,9.00
2019-03-22T04:10:03.066Z,9.00
2019-03-22T04:12:55.343Z,9.00
2019-03-22T04:15:25.769Z,8.90
2019-03-22T04:18:16.345Z,8.90
2019-03-22T04:20:46.855Z,8.80
2019-03-22T04:23:23.711Z,8.80
2019-03-22T04:25:55.544Z,8.80
2019-03-22T04:28:26.295Z,8.80
2019-03-22T04:31:14.108Z,8.80
2019-03-22T04:33:44.518Z,8.80
2019-03-22T04:36:16.885Z,8.80
2019-03-22T04:39:06.371Z,8.70
2019-03-22T04:41:45.547Z,8.70
2019-03-22T04:44:16.871Z,8.70
2019-03-22T04:46:48.566Z,8.70
2019-03-22T04:49:48.582Z,8.70
2019-03-22T04:52:45.910Z,8.70
2019-03-22T04:55:17.796Z,8.70
2019-03-22T04:57:54.457Z,8.60
2019-03-22T05:00:25.547Z,8.60
2019-03-22T05:02:57.181Z,8.60
2019-03-22T05:05:31.733Z,8.60
2019-03-22T05:08:10.144Z,8.60
2019-03-22T05:10:40.854Z,8.60
2019-03-22T05:13:16.630Z,8.60
2019-03-22T05:15:54.267Z,8.60
2019-03-22T05:18:31.788Z,8.60
2019-03-22T05:21:02.399Z,8.70
2019-03-22T05:23:38.185Z,8.60
2019-03-22T05:26:13.282Z,8.60
2019-03-22T05:28:44.349Z,8.60
2019-03-22T05:31:35.327Z,8.60
2019-03-22T05:34:05.858Z,8.60
2019-03-22T05:36:38.952Z,8.60
2019-03-22T05:39:11.097Z,8.60
2019-03-22T05:41:41.828Z,8.60
2019-03-22T05:44:21.434Z,8.60
2019-03-22T05:46:53.700Z,8.60
2019-03-22T05:49:26.840Z,8.50
2019-03-22T05:52:07.252Z,8.50
2019-03-22T05:54:38.764Z,8.50
2019-03-22T05:57:13.518Z,8.60
2019-03-22T05:59:46.053Z,8.50
2019-03-22T06:02:18.998Z,8.50
2019-03-22T06:04:52.023Z,8.50
2019-03-22T06:07:25.988Z,8.50
2019-03-22T06:10:00.979Z,8.50
2019-03-22T06:12:38.874Z,8.50
2019-03-22T06:15:12.273Z,8.50
2019-03-22T06:17:51.721Z,8.50
2019-03-22T06:20:20.188Z,8.50
2019-03-22T06:23:08.261Z,8.50
2019-03-22T06:25:39.165Z,8.50
2019-03-22T06:28:10.746Z,8.50
2019-03-22T06:30:43.305Z,8.50
2019-03-22T06:33:13.941Z,8.50
2019-03-22T06:35:49.479Z,8.50
2019-03-22T06:38:22.051Z,8.50
2019-03-22T06:40:52.787Z,8.50
2019-03-22T06:43:32.779Z,8.50
2019-03-22T06:46:10.643Z,8.50
2019-03-22T06:48:48.333Z,8.50
2019-03-22T06:51:22.341Z,8.50
2019-03-22T06:54:13.082Z,8.50
2019-03-22T06:57:02.373Z,8.50
2019-03-22T06:59:33.155Z,8.50
2019-03-22T07:02:12.621Z,8.60
2019-03-22T07:04:43.233Z,8.60
2019-03-22T07:07:19.081Z,8.60
2019-03-22T07:10:07.267Z,8.60
2019-03-22T07:12:37.888Z,8.60
2019-03-22T07:15:08.824Z,8.70
2019-03-22T07:17:47.110Z,8.70
2019-03-22T07:20:34.764Z,8.70
2019-03-22T07:23:08.553Z,8.70
2019-03-22T07:25:39.105Z,8.70
2019-03-22T07:28:09.618Z,8.70
2019-03-22T07:30:40.234Z,8.70
2019-03-22T07:33:19.982Z,8.70
2019-03-22T07:35:57.586Z,8.70
2019-03-22T07:39:12.977Z,8.60
2019-03-22T07:41:14.542Z,8.70
2019-03-22T07:43:55.719Z,8.70
2019-03-22T07:46:34.714Z,8.70
2019-03-22T07:49:07.913Z,8.70
2019-03-22T07:51:42.891Z,8.70
2019-03-22T07:54:10.817Z,8.70
2019-03-22T07:56:42.570Z,8.70
2019-03-22T07:59:12.948Z,8.70
2019-03-22T08:01:43.764Z,8.80
2019-03-22T08:04:24.806Z,8.80
2019-03-22T08:06:55.440Z,8.80
2019-03-22T08:09:35.098Z,8.80
2019-03-22T08:12:07.564Z,8.90
2019-03-22T08:14:39.883Z,8.90
2019-03-22T08:17:13.236Z,8.90
2019-03-22T08:19:44.004Z,8.90
2019-03-22T08:22:15.204Z,8.90
2019-03-22T08:24:51.884Z,8.90
2019-03-22T08:27:27.771Z,8.90
2019-03-22T08:30:13.193Z,8.80
2019-03-22T08:32:45.432Z,8.90
2019-03-22T08:35:23.719Z,8.80
2019-03-22T08:37:58.172Z,8.90
2019-03-22T08:40:35.407Z,9.00
2019-03-22T08:43:08.431Z,8.90
2019-03-22T08:45:39.145Z,8.90
2019-03-22T08:48:09.638Z,8.90
2019-03-22T08:50:52.047Z,8.90
2019-03-22T08:53:27.434Z,8.90
2019-03-22T08:55:53.692Z,8.90
2019-03-22T08:58:24.224Z,8.90
2019-03-22T09:00:59.491Z,8.90
2019-03-22T09:03:30.143Z,8.90
2019-03-22T09:06:03.480Z,8.90
2019-03-22T09:08:36.668Z,9.00
2019-03-22T09:11:37.605Z,9.00
2019-03-22T09:13:41.688Z,9.10
2019-03-22T09:16:19.775Z,9.20
2019-03-22T09:18:50.296Z,9.10
2019-03-22T09:21:25.652Z,9.20
2019-03-22T09:23:59.031Z,9.20
2019-03-22T09:26:47.221Z,9.20
2019-03-22T09:29:09.200Z,9.20
2019-03-22T09:31:44.354Z,9.30
2019-03-22T09:34:17.545Z,9.30
2019-03-22T09:36:48.766Z,9.20
2019-03-22T09:39:19.574Z,9.20
2019-03-22T09:41:51.231Z,9.30
2019-03-22T09:44:28.093Z,9.30
2019-03-22T09:47:09.431Z,9.30
2019-03-22T09:49:43.356Z,9.40
2019-03-22T09:52:18.173Z,9.40
2019-03-22T09:54:54.595Z,9.30
2019-03-22T09:57:31.251Z,9.30
2019-03-22T10:00:02.469Z,9.30
2019-03-22T10:02:34.374Z,9.30
2019-03-22T10:05:05.402Z,9.30
2019-03-22T10:07:38.248Z,9.20
2019-03-22T10:10:08.988Z,9.30
2019-03-22T10:12:42.013Z,9.30
2019-03-22T10:15:28.046Z,9.40
2019-03-22T10:18:01.059Z,9.40
2019-03-22T10:20:31.565Z,9.30
2019-03-22T10:23:12.622Z,9.30
2019-03-22T10:25:53.387Z,9.30
2019-03-22T10:28:24.012Z,9.30
2019-03-22T10:30:54.448Z,9.30
2019-03-22T10:33:24.861Z,9.30
2019-03-22T10:35:58.099Z,9.40
2019-03-22T10:38:41.005Z,9.40
2019-03-22T10:41:21.248Z,9.50
2019-03-22T10:44:01.851Z,9.60
2019-03-22T10:46:32.379Z,9.60
2019-03-22T10:49:31.885Z,9.60
2019-03-22T10:52:12.166Z,9.60
2019-03-22T10:55:17.475Z,9.70
2019-03-22T10:57:48.775Z,9.50
2019-03-22T11:00:22.203Z,9.60
2019-03-22T11:02:57.072Z,9.60
2019-03-22T11:05:48.069Z,9.70
2019-03-22T11:08:19.735Z,9.70
2019-03-22T11:11:11.628Z,9.70
2019-03-22T11:13:46.146Z,9.90
2019-03-22T11:16:21.948Z,9.90
2019-03-22T11:18:52.475Z,9.90
2019-03-22T11:21:24.809Z,9.90
2019-03-22T11:24:05.007Z,10.00
2019-03-22T11:26:40.244Z,10.00
2019-03-22T11:29:14.874Z,10.20
2019-03-22T11:31:47.813Z,10.10
2019-03-22T11:34:36.957Z,10.20
2019-03-22T11:37:10.730Z,10.10
2019-03-22T11:40:00.006Z,10.10
2019-03-22T11:42:34.539Z,10.20
2019-03-22T11:45:15.698Z,10.00
2019-03-22T11:47:46.394Z,9.90
2019-03-22T11:50:21.563Z,9.90
2019-03-22T11:52:53.589Z,9.90
2019-03-22T11:55:34.531Z,10.00
2019-03-22T11:58:12.562Z,10.00
2019-03-22T12:00:49.886Z,10.20
2019-03-22T12:03:29.459Z,10.20
2019-03-22T12:06:10.092Z,10.20
2019-03-22T12:08:48.277Z,10.20
2019-03-22T12:11:20.300Z,10.10
2019-03-22T12:13:54.190Z,10.10
2019-03-22T12:16:27.650Z,10.10
2019-03-22T12:18:58.053Z,10.10
2019-03-22T12:21:28.366Z,10.20
2019-03-22T12:24:06.685Z,10.30
2019-03-22T12:26:37.216Z,10.20
2019-03-22T12:29:12.743Z,10.20
2019-03-22T12:31:43.420Z,10.30
2019-03-22T12:34:14.087Z,10.30
2019-03-22T12:36:52.053Z,10.30
2019-03-22T12:39:19.777Z,10.40
2019-03-22T12:41:50.311Z,10.30
2019-03-22T12:44:22.961Z,10.30
2019-03-22T12:46:53.418Z,10.20
2019-03-22T12:49:26.136Z,10.30
2019-03-22T12:52:14.326Z,10.30
2019-03-22T12:54:44.811Z,10.40
2019-03-22T12:57:32.503Z,10.50
2019-03-22T13:00:11.744Z,10.50
2019-03-22T13:02:44.389Z,10.30
2019-03-22T13:05:19.520Z,10.40
2019-03-22T13:08:01.640Z,10.30
2019-03-22T13:10:39.934Z,10.30
2019-03-22T13:13:19.585Z,10.20
2019-03-22T13:15:53.998Z,10.20
2019-03-22T13:18:33.276Z,10.20
2019-03-22T13:21:14.168Z,10.20
2019-03-22T13:23:46.868Z,10.30
2019-03-22T13:26:24.839Z,10.50
2019-03-22T13:28:55.209Z,10.70
2019-03-22T13:31:26.775Z,10.60
2019-03-22T13:34:16.220Z,10.50
2019-03-22T13:36:49.156Z,10.50
2019-03-22T13:39:28.643Z,10.40
2019-03-22T13:42:17.498Z,10.40
2019-03-22T13:44:53.495Z,10.50
2019-03-22T13:47:24.247Z,10.60
2019-03-22T13:50:13.927Z,10.50
2019-03-22T13:52:53.976Z,10.40
2019-03-22T13:55:32.689Z,10.20
2019-03-22T13:58:07.726Z,10.30
2019-03-22T14:00:45.851Z,10.30
2019-03-22T14:03:23.951Z,10.20
2019-03-22T14:06:11.833Z,10.30
2019-03-22T14:08:42.216Z,10.30
2019-03-22T14:11:34.572Z,10.40
2019-03-22T14:14:05.048Z,10.30
2019-03-22T14:16:37.991Z,10.40
2019-03-22T14:19:15.914Z,10.30
2019-03-22T14:21:52.334Z,10.30
2019-03-22T14:24:22.944Z,10.30
2019-03-22T14:26:53.467Z,10.30
2019-03-22T14:29:25.714Z,10.30
2019-03-22T14:32:03.316Z,10.40
2019-03-22T14:34:48.381Z,10.40
2019-03-22T14:37:31.064Z,10.40
2019-03-22T14:40:15.952Z,10.40
2019-03-22T14:42:46.414Z,10.30
2019-03-22T14:45:18.433Z,10.40
2019-03-22T14:47:52.282Z,10.40
2019-03-22T14:50:31.310Z,10.40
2019-03-22T14:53:38.050Z,10.50
2019-03-22T14:56:25.458Z,10.50
2019-03-22T14:58:55.869Z,10.50
2019-03-22T15:01:26.320Z,10.50
2019-03-22T15:04:17.830Z,10.60
2019-03-22T15:06:57.173Z,10.50
2019-03-22T15:09:46.300Z,10.50
2019-03-22T15:12:18.712Z,10.60
2019-03-22T15:15:16.867Z,10.70
2019-03-22T15:18:23.881Z,10.70
2019-03-22T15:21:13.504Z,10.60
2019-03-22T15:24:18.762Z,10.70
2019-03-22T15:27:31.064Z,10.60
2019-03-22T15:30:10.799Z,10.60
2019-03-22T15:32:57.689Z,10.50
2019-03-22T15:36:15.153Z,10.50
2019-03-22T15:39:14.070Z,10.50
2019-03-22T15:41:53.991Z,10.50
2019-03-22T15:44:43.876Z,10.50
2019-03-22T15:47:20.712Z,10.50
2019-03-22T15:50:01.155Z,10.50
2019-03-22T15:52:28.721Z,10.50
2019-03-22T15:55:10.488Z,10.40
2019-03-22T15:57:50.309Z,10.40
2019-03-22T16:00:25.987Z,10.40
2019-03-22T16:03:02.661Z,10.40
2019-03-22T16:05:32.185Z,10.40
2019-03-22T16:08:10.278Z,10.40
2019-03-22T16:10:41.090Z,10.50
2019-03-22T16:13:20.801Z,10.50
2019-03-22T16:15:51.174Z,10.50
2019-03-22T16:18:23.297Z,10.50
2019-03-22T16:21:00.035Z,10.40
2019-03-22T16:23:38.669Z,10.40
2019-03-22T16:26:15.255Z,10.40
2019-03-22T16:28:51.157Z,10.30
2019-03-22T16:31:21.511Z,10.30
2019-03-22T16:33:54.792Z,10.30
2019-03-22T16:36:23.931Z,10.30
2019-03-22T16:38:58.720Z,10.30
2019-03-22T16:41:33.552Z,10.20
2019-03-22T16:44:01.346Z,10.20
2019-03-22T16:46:33.078Z,10.30
2019-03-22T16:49:03.571Z,10.30
2019-03-22T16:51:37.923Z,10.20
2019-03-22T16:54:08.501Z,10.20
2019-03-22T16:56:49.598Z,10.20
2019-03-22T16:59:20.064Z,10.20
2019-03-22T17:02:07.806Z,10.20
2019-03-22T17:04:45.631Z,10.20
2019-03-22T17:07:20.464Z,10.20
2019-03-22T17:09:50.899Z,10.20
2019-03-22T17:12:29.786Z,10.10
2019-03-22T17:15:00.167Z,10.20
2019-03-22T17:17:30.668Z,10.20
2019-03-22T17:20:03.762Z,10.10
2019-03-22T17:22:34.233Z,10.10
2019-03-22T17:25:08.240Z,10.10
2019-03-22T17:27:42.357Z,10.00
2019-03-22T17:30:21.689Z,10.00
2019-03-22T17:32:55.383Z,10.00
2019-03-22T17:35:33.335Z,10.00
2019-03-22T17:38:05.804Z,10.00
2019-03-22T17:40:36.544Z,10.00
2019-03-22T17:43:14.519Z,10.00
2019-03-22T17:46:04.308Z,9.90
2019-03-22T17:48:44.471Z,10.00
2019-03-22T17:51:17.137Z,9.90
2019-03-22T17:53:53.933Z,10.00
2019-03-22T17:56:31.001Z,10.00
2019-03-22T17:59:00.594Z,9.90
2019-03-22T18:01:31.083Z,9.90
2019-03-22T18:04:12.115Z,9.90
2019-03-22T18:06:54.504Z,9.90
2019-03-22T18:09:30.386Z,9.90
2019-03-22T18:12:04.809Z,9.90
2019-03-22T18:15:27.420Z,9.90
2019-03-22T18:18:02.470Z,9.90
2019-03-22T18:20:35.174Z,9.90
2019-03-22T18:23:15.952Z,9.90
2019-03-22T18:25:53.743Z,9.90
2019-03-22T18:28:30.731Z,9.90
2019-03-22T18:31:17.739Z,9.90
2019-03-22T18:33:53.707Z,9.90
2019-03-22T18:36:40.817Z,9.80
2019-03-22T18:39:33.336Z,9.80
2019-03-22T18:42:04.029Z,9.80
2019-03-22T18:44:57.558Z,9.80
2019-03-22T18:47:30.632Z,9.90
2019-03-22T18:50:07.540Z,9.90
2019-03-22T18:52:38.043Z,9.90
2019-03-22T18:55:11.187Z,9.90
2019-03-22T18:57:41.961Z,9.80
2019-03-22T19:00:21.930Z,9.80
2019-03-22T19:02:58.504Z,9.80
2019-03-22T19:05:43.969Z,9.80
2019-03-22T19:08:14.361Z,9.80
2019-03-22T19:10:52.232Z,9.70
2019-03-22T19:13:30.430Z,9.70
2019-03-22T19:16:00.127Z,9.70
2019-03-22T19:18:38.072Z,9.70
2019-03-22T19:21:30.169Z,9.70
2019-03-22T19:24:29.680Z,9.70
2019-03-22T19:26:41.982Z,9.70
2019-03-22T19:29:14.976Z,9.60
2019-03-22T19:31:47.715Z,9.60
2019-03-22T19:34:38.525Z,9.60
2019-03-22T19:37:09.281Z,9.60
2019-03-22T19:39:51.483Z,9.50
2019-03-22T19:42:29.225Z,9.50
2019-03-22T19:45:08.027Z,9.60
2019-03-22T19:47:46.023Z,9.50
2019-03-22T19:50:17.255Z,9.50
2019-03-22T19:52:48.708Z,9.50
2019-03-22T19:55:21.945Z,9.40
2019-03-22T19:58:01.668Z,9.50
2019-03-22T20:00:38.029Z,9.50
2019-03-22T20:03:13.764Z,9.40
2019-03-22T20:05:52.865Z,9.40
2019-03-22T20:08:26.537Z,9.40
2019-03-22T20:10:59.814Z,9.40
2019-03-22T20:13:39.720Z,9.40
2019-03-22T20:16:11.538Z,9.50
2019-03-22T20:18:44.221Z,9.50
2019-03-22T20:21:21.878Z,9.50
2019-03-22T20:23:54.256Z,9.50
2019-03-22T20:26:24.473Z,9.50
2019-03-22T20:29:04.466Z,9.50
2019-03-22T20:31:40.311Z,9.50
2019-03-22T20:34:13.680Z,9.50
2019-03-22T20:36:45.384Z,9.50
2019-03-22T20:39:16.229Z,9.60
2019-03-22T20:41:55.118Z,9.60
2019-03-22T20:44:44.749Z,9.50
2019-03-22T20:47:17.869Z,9.50
2019-03-22T20:50:11.786Z,9.60
2019-03-22T20:52:44.358Z,9.50
2019-03-22T20:55:27.269Z,9.50
2019-03-22T20:58:00.341Z,9.50
2019-03-22T21:00:38.612Z,9.50
2019-03-22T21:03:22.572Z,9.50
2019-03-22T21:05:49.340Z,9.40
2019-03-22T21:08:20.773Z,9.40
2019-03-22T21:10:55.236Z,9.40
2019-03-22T21:13:35.300Z,9.50
2019-03-22T21:16:05.867Z,9.50
2019-03-22T21:18:37.943Z,9.40
2019-03-22T21:21:43.198Z,9.40
2019-03-22T21:24:15.578Z,9.40
2019-03-22T21:26:46.112Z,9.50
2019-03-22T21:29:16.661Z,9.50
2019-03-22T21:31:47.336Z,9.50
2019-03-22T21:34:17.772Z,9.50
2019-03-22T21:36:48.642Z,9.50
2019-03-22T21:39:19.892Z,9.40
2019-03-22T21:41:50.640Z,9.50
2019-03-22T21:44:21.267Z,9.40
2019-03-22T21:46:51.647Z,9.40
2019-03-22T21:49:24.294Z,9.40
2019-03-22T21:51:57.568Z,9.50
2019-03-22T21:54:28.561Z,9.50
2019-03-22T21:56:59.036Z,9.40
2019-03-22T21:59:29.605Z,9.40
2019-03-22T22:02:00.194Z,9.40
2019-03-22T22:04:31.900Z,9.40
2019-03-22T22:07:02.371Z,9.40
2019-03-22T22:09:33.150Z,9.40
2019-03-22T22:12:03.712Z,9.40
2019-03-22T22:14:40.781Z,9.40
2019-03-22T22:17:11.707Z,9.40
2019-03-22T22:19:42.084Z,9.40
2019-03-22T22:22:14.308Z,9.40
2019-03-22T22:24:44.837Z,9.40
2019-03-22T22:27:15.375Z,9.40
2019-03-22T22:29:47.637Z,9.30
2019-03-22T22:32:20.699Z,9.30
2019-03-22T22:34:51.219Z,9.30
2019-03-22T22:37:22.058Z,9.40
2019-03-22T22:39:52.998Z,9.40
2019-03-22T22:42:23.482Z,9.30
2019-03-22T22:44:56.978Z,9.10
2019-03-22T22:47:32.932Z,9.00
2019-03-22T22:50:03.711Z,9.00
2019-03-22T22:52:34.433Z,8.90
2019-03-22T22:55:08.213Z,8.70
2019-03-22T22:57:38.717Z,8.60
2019-03-22T23:00:14.577Z,8.50
2019-03-22T23:02:45.279Z,8.40
2019-03-22T23:05:18.738Z,8.10
2019-03-22T23:07:49.415Z,8.10
2019-03-22T23:10:19.956Z,8.10
2019-03-22T23:12:50.385Z,7.90
2019-03-22T23:15:25.276Z,7.80
2019-03-22T23:17:57.496Z,8.00
2019-03-22T23:20:28.592Z,8.10
2019-03-22T23:23:03.134Z,8.00
2019-03-22T23:25:33.890Z,7.80
2019-03-22T23:28:04.296Z,7.70
2019-03-22T23:30:34.698Z,7.50
2019-03-22T23:33:05.088Z,7.40
2019-03-22T23:35:35.720Z,7.50
2019-03-22T23:38:06.269Z,7.60
2019-03-22T23:40:40.055Z,7.50
2019-03-22T23:43:12.884Z,7.40
2019-03-22T23:45:49.212Z,7.20
2019-03-22T23:48:26.898Z,7.20
2019-03-22T23:50:57.475Z,7.20
2019-03-22T23:53:30.293Z,7.00
2019-03-22T23:56:00.829Z,7.00
2019-03-22T23:58:31.490Z,7.00
